Time;durP1;ratioP1;P1;durP2;ratioP2;P2;SDS_P1;SDS_P2;PMS_P1;PMS_P2;Temp;Humidity;BMP_temperature;BMP_pressure;BME280_temperature;BME280_humidity;BME280_pressure;Samples;Min_cycle;Max_cycle;Signal;HPM_P1;HPM_P2
2022/07/01 00:01:41;;;;;;;11.48;3.92;;;;;;;15.43;100.00;97860.91;5081929;28;20032;-94
2022/07/01 00:04:06;;;;;;;8.45;3.65;;;;;;;15.64;100.00;97851.25;5065481;28;20094;-94
2022/07/01 00:06:33;;;;;;;10.20;3.63;;;;;;;15.86;100.00;97855.56;5056019;28;20508;-95
2022/07/01 00:08:59;;;;;;;10.43;4.22;;;;;;;15.90;100.00;97846.63;5055127;28;20116;-95
2022/07/01 00:11:24;;;;;;;11.00;3.92;;;;;;;16.35;100.00;97855.09;5053133;28;20112;-95
2022/07/01 00:13:53;;;;;;;12.80;4.20;;;;;;;15.95;100.00;97854.28;5052543;28;20048;-96
2022/07/01 00:16:19;;;;;;;11.13;4.20;;;;;;;15.80;100.00;97851.44;5055885;28;20080;-96
2022/07/01 00:18:45;;;;;;;9.85;3.97;;;;;;;16.00;100.00;97853.16;5052306;28;20246;-95
2022/07/01 00:21:16;;;;;;;11.32;4.30;;;;;;;16.19;100.00;97852.34;5057099;28;20404;-95
2022/07/01 00:23:42;;;;;;;10.05;4.57;;;;;;;16.19;100.00;97850.53;5054817;28;20081;-95
2022/07/01 00:26:08;;;;;;;9.63;3.85;;;;;;;15.97;100.00;97853.31;5053023;28;20115;-96
2022/07/01 00:28:33;;;;;;;11.25;4.28;;;;;;;16.01;100.00;97848.78;5054658;28;20036;-96
2022/07/01 00:30:59;;;;;;;10.45;4.10;;;;;;;16.21;100.00;97851.34;5052983;28;20033;-95
2022/07/01 00:33:25;;;;;;;9.98;4.18;;;;;;;16.17;100.00;97849.78;5048245;28;20028;-96
2022/07/01 00:35:53;;;;;;;11.50;4.50;;;;;;;16.18;100.00;97845.34;5053864;28;20047;-96
2022/07/01 00:38:18;;;;;;;11.73;3.80;;;;;;;15.90;100.00;97848.41;5053236;28;20106;-95
2022/07/01 00:40:44;;;;;;;8.88;3.40;;;;;;;16.11;100.00;97846.56;5056140;28;20473;-96
2022/07/01 00:43:10;;;;;;;6.50;2.67;;;;;;;16.11;100.00;97843.94;5043781;28;20116;-96
2022/07/01 00:45:35;;;;;;;8.05;2.90;;;;;;;15.91;100.00;97840.44;5052547;28;20524;-96
2022/07/01 00:48:01;;;;;;;6.90;2.42;;;;;;;16.35;100.00;97836.66;5055554;28;20033;-96
2022/07/01 00:50:27;;;;;;;9.13;2.38;;;;;;;15.72;100.00;97840.38;5054595;28;20040;-96
2022/07/01 00:52:52;;;;;;;6.38;2.45;;;;;;;15.77;100.00;97833.16;5055573;28;20036;-96
2022/07/01 00:55:19;;;;;;;6.53;2.40;;;;;;;15.81;100.00;97836.50;5061983;28;20081;-96
2022/07/01 00:57:46;;;;;;;7.65;2.40;;;;;;;15.58;100.00;97834.91;5060046;28;20485;-95
2022/07/01 01:00:16;;;;;;;7.10;2.50;;;;;;;15.86;100.00;97832.75;5087020;28;20032;-96
2022/07/01 01:02:43;;;;;;;6.10;2.38;;;;;;;15.58;100.00;97830.50;5088095;28;20122;-95
2022/07/01 01:05:10;;;;;;;6.30;2.10;;;;;;;15.94;100.00;97829.78;5057466;28;20063;-96
2022/07/01 01:07:36;;;;;;;5.20;1.70;;;;;;;15.81;100.00;97828.63;5049497;28;20392;-96
2022/07/01 01:10:04;;;;;;;5.45;1.60;;;;;;;15.59;100.00;97829.56;5055880;28;20029;-96
2022/07/01 01:12:30;;;;;;;5.70;1.88;;;;;;;15.67;100.00;97831.84;5056570;28;20029;-95
2022/07/01 01:14:57;;;;;;;5.93;1.90;;;;;;;15.47;100.00;97828.31;5057864;28;20551;-96
2022/07/01 01:17:23;;;;;;;7.25;2.10;;;;;;;16.04;100.00;97824.97;5056159;28;20029;-96
2022/07/01 01:19:51;;;;;;;7.60;1.90;;;;;;;15.61;100.00;97819.00;5054975;28;20107;-96
2022/07/01 01:22:18;;;;;;;5.65;1.90;;;;;;;16.07;100.00;97822.19;5063030;28;20040;-96
2022/07/01 01:24:47;;;;;;;6.55;2.10;;;;;;;16.08;100.00;97823.06;5054904;28;20020;-96
2022/07/01 01:27:13;;;;;;;7.38;2.35;;;;;;;15.88;100.00;97819.56;5057111;28;20094;-95
2022/07/01 01:29:43;;;;;;;5.88;2.30;;;;;;;16.07;100.00;97816.06;5060220;28;20028;-96
2022/07/01 01:32:09;;;;;;;6.88;2.53;;;;;;;15.93;100.00;97817.56;5058602;28;20078;-96
2022/07/01 01:34:37;;;;;;;9.88;3.08;;;;;;;15.91;100.00;97822.03;5068651;28;20040;-96
2022/07/01 01:37:05;;;;;;;9.00;3.00;;;;;;;15.79;100.00;97815.56;5068135;28;20040;-96
2022/07/01 01:39:30;;;;;;;7.63;3.00;;;;;;;15.56;100.00;97816.56;5053794;28;20036;-95
2022/07/01 01:41:56;;;;;;;7.97;3.30;;;;;;;15.95;100.00;97814.84;5054410;28;20037;-96
2022/07/01 01:44:24;;;;;;;9.75;3.83;;;;;;;16.13;100.00;97824.53;5059514;28;20065;-96
2022/07/01 01:46:50;;;;;;;10.52;4.25;;;;;;;15.52;100.00;97818.47;5093723;28;20031;-94
2022/07/01 01:49:16;;;;;;;10.27;4.60;;;;;;;15.71;100.00;97820.28;5079369;28;20033;-96
2022/07/01 01:51:42;;;;;;;15.15;5.13;;;;;;;15.94;100.00;97814.00;5072625;28;20040;-96
2022/07/01 01:54:08;;;;;;;11.85;5.55;;;;;;;15.52;100.00;97815.84;5071973;28;20919;-96
2022/07/01 01:56:38;;;;;;;12.45;6.22;;;;;;;15.50;100.00;97816.84;5067951;28;20025;-96
2022/07/01 01:59:07;;;;;;;12.77;6.47;;;;;;;15.21;100.00;97816.31;5067894;28;20084;-96
2022/07/01 02:01:33;;;;;;;12.48;6.93;;;;;;;15.50;100.00;97817.69;5068781;28;20036;-96
2022/07/01 02:03:59;;;;;;;12.20;6.18;;;;;;;15.87;100.00;97820.47;5076258;28;20037;-96
2022/07/01 02:06:26;;;;;;;13.30;6.13;;;;;;;15.85;100.00;97817.91;5085530;28;20029;-96
2022/07/01 02:08:53;;;;;;;16.00;6.38;;;;;;;15.78;100.00;97818.22;5081757;28;20038;-96
2022/07/01 02:11:20;;;;;;;12.18;6.07;;;;;;;15.62;100.00;97813.66;5072617;28;20036;-96
2022/07/01 02:13:46;;;;;;;14.20;6.10;;;;;;;15.67;100.00;97811.69;5070080;28;20054;-96
2022/07/01 02:16:12;;;;;;;13.55;6.47;;;;;;;15.72;100.00;97815.88;5063107;28;20029;-96
2022/07/01 02:18:40;;;;;;;14.32;6.03;;;;;;;15.50;100.00;97814.19;5075272;28;20040;-96
2022/07/01 02:21:10;;;;;;;12.30;5.60;;;;;;;15.25;100.00;97817.91;5101818;28;20033;-96
2022/07/01 02:23:40;;;;;;;11.68;5.90;;;;;;;15.25;100.00;97817.06;5072659;28;20035;-95
2022/07/01 02:26:08;;;;;;;13.38;5.70;;;;;;;15.18;100.00;97819.09;5074247;28;20036;-96
2022/07/01 02:28:40;;;;;;;12.23;5.53;;;;;;;15.35;100.00;97829.72;5079207;28;20024;-96
2022/07/01 02:31:22;;;;;;;10.82;5.50;;;;;;;15.36;100.00;97815.69;5056953;28;20067;-96
2022/07/01 02:34:07;;;;;;;11.38;5.32;;;;;;;15.29;100.00;97823.88;5077485;28;20037;-96
2022/07/01 02:36:35;;;;;;;12.75;5.93;;;;;;;15.12;100.00;97809.69;5070226;28;20080;-96
2022/07/01 02:39:01;;;;;;;15.80;6.50;;;;;;;15.44;100.00;97810.06;5061914;28;20028;-96
2022/07/01 02:41:28;;;;;;;13.27;6.30;;;;;;;15.01;100.00;97807.53;5078551;28;20037;-95
2022/07/01 02:43:54;;;;;;;14.05;7.32;;;;;;;15.10;100.00;97819.44;5089995;28;20009;-96
2022/07/01 02:46:24;;;;;;;16.77;7.35;;;;;;;15.19;100.00;97826.06;5074384;28;20032;-95
2022/07/01 02:48:50;;;;;;;16.52;7.30;;;;;;;15.49;100.00;97815.13;5065957;28;20055;-96
2022/07/01 02:51:27;;;;;;;14.70;7.20;;;;;;;15.21;100.00;97826.81;5069304;28;20040;-96
2022/07/01 02:53:53;;;;;;;14.32;6.97;;;;;;;15.29;100.00;97819.47;5083394;28;20049;-96
2022/07/01 02:56:18;;;;;;;14.95;6.28;;;;;;;15.48;100.00;97826.56;5047313;22;20050;-93
2022/07/01 02:58:44;;;;;;;13.65;6.85;;;;;;;15.27;100.00;97831.00;5036727;28;20040;-95
2022/07/01 03:01:09;;;;;;;14.10;7.53;;;;;;;15.12;100.00;97837.75;5032764;28;20029;-94
2022/07/01 03:03:35;;;;;;;13.93;6.78;;;;;;;15.49;100.00;97837.00;5033688;28;20037;-94
2022/07/01 03:06:00;;;;;;;14.65;6.95;;;;;;;15.32;100.00;97840.38;5033993;28;20091;-95
2022/07/01 03:08:26;;;;;;;14.60;6.05;;;;;;;15.41;100.00;97840.91;5043367;28;20025;-94
2022/07/01 03:10:51;;;;;;;15.25;6.22;;;;;;;15.44;100.00;97849.47;5034050;28;20397;-95
2022/07/01 03:13:19;;;;;;;11.25;5.57;;;;;;;15.53;100.00;97840.34;5042625;28;20031;-94
2022/07/01 03:15:44;;;;;;;12.13;5.80;;;;;;;15.93;100.00;97843.84;5038164;28;20025;-94
2022/07/01 03:18:10;;;;;;;11.77;5.53;;;;;;;15.57;100.00;97851.59;5032861;28;20032;-93
2022/07/01 03:20:35;;;;;;;14.98;5.70;;;;;;;15.64;100.00;97846.00;5035815;28;20029;-96
2022/07/01 03:23:01;;;;;;;10.70;5.38;;;;;;;15.67;100.00;97845.84;5037482;28;20029;-95
2022/07/01 03:25:26;;;;;;;12.32;5.47;;;;;;;15.55;100.00;97848.19;5030442;28;20103;-96
2022/07/01 03:27:54;;;;;;;12.35;5.55;;;;;;;15.74;100.00;97850.81;5032956;28;20032;-94
2022/07/01 03:30:19;;;;;;;11.65;5.80;;;;;;;15.50;100.00;97849.25;5035022;28;20036;-95
2022/07/01 03:32:48;;;;;;;10.52;5.32;;;;;;;15.42;100.00;97840.84;5030804;28;20028;-95
2022/07/01 03:37:58;;;;;;;10.00;5.00;;;;;;;15.36;100.00;97848.97;5034524;28;20061;-96
2022/07/01 03:40:23;;;;;;;9.77;4.30;;;;;;;15.09;100.00;97845.75;5037917;28;20134;-95
2022/07/01 03:42:49;;;;;;;14.70;5.28;;;;;;;15.28;100.00;97851.06;5041057;28;20033;-93
2022/07/01 03:45:14;;;;;;;13.23;4.97;;;;;;;15.41;100.00;97859.28;5042786;28;20109;-95
2022/07/01 03:47:46;;;;;;;11.40;5.20;;;;;;;15.52;100.00;97863.16;5034442;28;20029;-93
2022/07/01 03:50:11;;;;;;;13.27;5.72;;;;;;;16.06;100.00;97866.97;5037906;28;20056;-96
2022/07/01 03:52:37;;;;;;;11.70;4.85;;;;;;;15.91;100.00;97864.13;5035351;28;20029;-96
2022/07/01 03:55:02;;;;;;;13.88;5.88;;;;;;;15.93;100.00;97864.03;5043960;28;20462;-94
2022/07/01 03:57:28;;;;;;;13.30;5.05;;;;;;;16.09;100.00;97859.81;5042010;28;20473;-95
2022/07/01 03:59:53;;;;;;;13.57;5.60;;;;;;;16.00;100.00;97865.47;5046914;28;20056;-95
2022/07/01 04:02:19;;;;;;;12.63;5.40;;;;;;;16.19;100.00;97868.97;5035657;28;20029;-95
2022/07/01 04:04:44;;;;;;;12.05;6.32;;;;;;;16.07;100.00;97879.19;5035730;28;20032;-96
2022/07/01 04:07:11;;;;;;;13.80;5.78;;;;;;;15.90;100.00;97865.03;5034341;28;20029;-95
2022/07/01 04:09:37;;;;;;;14.43;6.95;;;;;;;16.11;100.00;97870.25;5059641;28;20508;-94
2022/07/01 04:12:03;;;;;;;13.70;6.35;;;;;;;16.08;100.00;97875.66;5036648;28;20033;-96
2022/07/01 04:14:29;;;;;;;19.15;7.22;;;;;;;16.30;100.00;97873.72;5039366;28;20037;-94
2022/07/01 04:16:55;;;;;;;14.55;6.80;;;;;;;16.12;100.00;97877.22;5037705;28;20619;-95
2022/07/01 04:19:21;;;;;;;15.32;6.30;;;;;;;16.40;100.00;97878.56;5039504;28;20028;-93
2022/07/01 04:24:32;;;;;;;14.18;6.75;;;;;;;16.72;100.00;97891.03;5034951;28;20389;-94
2022/07/01 04:26:59;;;;;;;13.48;6.05;;;;;;;16.76;100.00;97890.88;5035328;28;20029;-93
2022/07/01 04:29:24;;;;;;;12.77;6.45;;;;;;;16.94;100.00;97897.94;5039743;28;20052;-96
2022/07/01 04:31:50;;;;;;;11.73;6.30;;;;;;;17.15;100.00;97890.75;5057066;28;20032;-96
2022/07/01 04:34:16;;;;;;;13.65;6.00;;;;;;;16.80;100.00;97900.34;5039974;28;20029;-95
2022/07/01 04:36:41;;;;;;;15.05;6.88;;;;;;;17.22;100.00;97907.13;5034981;28;20040;-95
2022/07/01 04:39:08;;;;;;;15.32;6.85;;;;;;;17.39;100.00;97899.22;5035699;28;20144;-96
2022/07/01 04:44:19;;;;;;;16.20;7.45;;;;;;;17.25;100.00;97904.34;5039330;28;20050;-95
2022/07/01 04:46:44;;;;;;;15.82;7.07;;;;;;;17.63;100.00;97898.03;5059218;28;20038;-96
2022/07/01 04:49:10;;;;;;;13.73;7.00;;;;;;;17.13;100.00;97904.94;5037447;28;20025;-93
2022/07/01 04:51:36;;;;;;;15.18;7.47;;;;;;;17.47;100.00;97912.00;5035835;28;20144;-95
2022/07/01 04:54:06;;;;;;;16.98;7.47;;;;;;;17.56;100.00;97902.78;5043356;28;20033;-96
2022/07/01 04:56:34;;;;;;;15.93;7.72;;;;;;;17.35;100.00;97913.47;5040743;28;20048;-95
2022/07/01 04:59:01;;;;;;;15.90;7.70;;;;;;;17.42;100.00;97907.91;5040329;28;20036;-96
2022/07/01 05:01:30;;;;;;;16.48;7.32;;;;;;;17.60;100.00;97908.75;5037661;28;20103;-94
2022/07/01 05:03:57;;;;;;;14.65;7.65;;;;;;;17.43;100.00;97922.81;5037746;28;20454;-96
2022/07/01 05:06:22;;;;;;;18.00;8.45;;;;;;;17.74;100.00;97917.66;5042167;28;20096;-96
2022/07/01 05:08:49;;;;;;;16.05;7.88;;;;;;;17.80;100.00;97908.59;5038806;28;20099;-96
2022/07/01 05:11:14;;;;;;;16.88;8.05;;;;;;;18.10;100.00;97896.53;5037544;28;20021;-94
2022/07/01 05:13:40;;;;;;;16.33;8.07;;;;;;;17.69;100.00;97903.84;5042948;28;20036;-96
2022/07/01 05:16:08;;;;;;;17.48;7.43;;;;;;;17.77;100.00;97892.91;5043434;28;20021;-96
2022/07/01 05:24:03;;;;;;;14.40;7.78;;;;;;;17.86;100.00;97913.53;5037417;28;20028;-95
2022/07/01 05:26:28;;;;;;;17.75;7.78;;;;;;;18.12;100.00;97907.84;5038750;28;20096;-94
2022/07/01 05:28:54;;;;;;;18.77;8.48;;;;;;;18.07;100.00;97911.56;5037098;28;20037;-95
2022/07/01 05:31:24;;;;;;;17.90;8.00;;;;;;;18.02;100.00;97910.09;5031702;28;20099;-96
2022/07/01 05:33:53;;;;;;;16.67;8.35;;;;;;;18.12;100.00;97898.16;5043504;28;20477;-95
2022/07/01 05:36:22;;;;;;;18.08;8.77;;;;;;;17.89;100.00;97908.09;5057100;28;20571;-96
2022/07/01 05:38:48;;;;;;;19.02;8.57;;;;;;;17.74;100.00;97900.97;5039045;28;20025;-95
2022/07/01 05:41:13;;;;;;;18.00;9.07;;;;;;;18.31;100.00;97908.53;5038435;28;20029;-95
2022/07/01 05:43:39;;;;;;;18.50;8.98;;;;;;;18.49;100.00;97896.13;5039474;28;20425;-94
2022/07/01 05:46:04;;;;;;;19.83;9.13;;;;;;;18.63;100.00;97900.66;5033095;28;20037;-96
2022/07/01 05:48:30;;;;;;;31.15;10.35;;;;;;;18.29;100.00;97899.00;5045503;28;20477;-96
2022/07/01 05:50:56;;;;;;;21.48;10.55;;;;;;;18.85;100.00;97902.09;5044158;28;20044;-95
2022/07/01 05:53:22;;;;;;;20.73;10.15;;;;;;;18.57;100.00;97896.56;5039185;28;20033;-96
2022/07/01 05:55:47;;;;;;;21.63;10.05;;;;;;;18.32;100.00;97891.78;5036120;28;20064;-96
2022/07/01 05:58:14;;;;;;;20.17;9.88;;;;;;;18.78;100.00;97896.28;5036940;28;20029;-96
2022/07/01 06:00:43;;;;;;;18.83;9.98;;;;;;;18.36;100.00;97898.59;5049146;28;20025;-95
2022/07/01 06:03:11;;;;;;;19.27;9.68;;;;;;;19.06;100.00;97900.03;5038763;28;20028;-96
2022/07/01 06:05:41;;;;;;;17.25;8.98;;;;;;;18.30;100.00;97888.38;5037516;28;20116;-96
2022/07/01 06:08:11;;;;;;;18.40;9.05;;;;;;;18.71;100.00;97889.66;5040106;28;20049;-96
2022/07/01 06:10:37;;;;;;;16.30;8.68;;;;;;;18.43;100.00;97884.13;5043049;28;20025;-96
2022/07/01 06:13:03;;;;;;;16.58;8.60;;;;;;;18.65;100.00;97885.56;5038762;28;20082;-96
2022/07/01 06:15:29;;;;;;;16.25;8.75;;;;;;;18.19;100.00;97888.09;5048865;28;20069;-96
2022/07/01 06:17:56;;;;;;;18.90;9.73;;;;;;;18.33;100.00;97889.97;5064700;28;20041;-96
2022/07/01 06:20:22;;;;;;;14.30;8.52;;;;;;;18.41;100.00;97888.66;5048978;28;20214;-96
2022/07/01 06:22:47;;;;;;;16.58;8.38;;;;;;;18.34;100.00;97897.81;5038638;28;20037;-96
2022/07/01 06:25:12;;;;;;;15.40;7.95;;;;;;;18.33;100.00;97892.63;5038272;28;20316;-95
2022/07/01 06:27:41;;;;;;;13.98;8.25;;;;;;;18.47;100.00;97905.94;5037690;28;20043;-96
2022/07/01 06:30:07;;;;;;;17.42;8.27;;;;;;;18.16;100.00;97893.53;5035134;28;20037;-92
2022/07/01 06:32:32;;;;;;;13.35;7.65;;;;;;;18.72;100.00;97901.94;5031953;28;20137;-86
2022/07/01 06:34:58;;;;;;;15.02;7.65;;;;;;;19.32;100.00;97906.47;5024041;28;20474;-95
2022/07/01 06:37:23;;;;;;;14.13;6.93;;;;;;;18.88;100.00;97901.94;5033981;28;20072;-94
2022/07/01 06:39:49;;;;;;;14.30;6.93;;;;;;;18.80;100.00;97902.34;5034023;28;20086;-94
2022/07/01 06:42:14;;;;;;;12.18;6.75;;;;;;;18.79;100.00;97902.41;5034742;28;20033;-94
2022/07/01 06:44:40;;;;;;;13.38;7.13;;;;;;;19.52;100.00;97904.44;5035060;28;20025;-96
2022/07/01 06:47:05;;;;;;;13.52;6.70;;;;;;;19.14;100.00;97902.22;5037598;28;20121;-90
2022/07/01 06:49:46;;;;;;;12.23;6.60;;;;;;;18.66;100.00;97896.97;5031512;28;20029;-96
2022/07/01 06:52:11;;;;;;;11.82;6.68;;;;;;;18.65;100.00;97903.19;5034413;28;20040;-95
2022/07/01 06:54:37;;;;;;;15.25;6.85;;;;;;;19.23;100.00;97901.72;5031517;28;20045;-93
2022/07/01 06:57:06;;;;;;;13.93;7.15;;;;;;;19.33;100.00;97902.88;5034528;28;20045;-93
2022/07/01 06:59:32;;;;;;;13.60;6.55;;;;;;;18.86;100.00;97906.41;5035491;28;20025;-94
2022/07/01 07:01:58;;;;;;;16.38;7.35;;;;;;;19.53;100.00;97912.28;5037529;28;20029;-94
2022/07/01 07:04:25;;;;;;;16.92;6.30;;;;;;;19.12;100.00;97909.41;5032806;28;20045;-94
2022/07/01 07:06:51;;;;;;;12.65;6.60;;;;;;;19.65;100.00;97918.63;5058042;28;20053;-95
2022/07/01 07:09:17;;;;;;;12.45;6.60;;;;;;;19.72;100.00;97912.03;5037274;28;20053;-93
2022/07/01 07:11:43;;;;;;;13.93;6.15;;;;;;;19.44;100.00;97915.47;5037814;28;20030;-95
2022/07/01 07:14:09;;;;;;;11.23;6.10;;;;;;;20.37;100.00;97915.22;5038575;28;20104;-94
2022/07/01 07:16:35;;;;;;;11.70;5.70;;;;;;;20.23;100.00;97929.31;5034638;28;20753;-94
2022/07/01 07:19:01;;;;;;;12.40;6.07;;;;;;;20.08;100.00;97925.78;5057923;28;20036;-94
2022/07/01 07:21:27;;;;;;;11.20;5.45;;;;;;;20.24;100.00;97923.91;5041983;28;20032;-94
2022/07/01 07:23:52;;;;;;;11.23;5.72;;;;;;;20.69;100.00;97925.59;5035823;28;20030;-94
2022/07/01 07:26:18;;;;;;;11.70;4.70;;;;;;;21.12;100.00;97915.69;5046204;28;20025;-93
2022/07/01 07:28:43;;;;;;;9.15;4.28;;;;;;;21.04;100.00;97931.25;5037194;28;20037;-94
2022/07/01 07:31:12;;;;;;;8.45;4.30;;;;;;;20.85;100.00;97921.03;5039012;28;20025;-93
2022/07/01 07:33:37;;;;;;;10.77;4.35;;;;;;;20.36;100.00;97924.09;5032939;28;20473;-92
2022/07/01 07:36:04;;;;;;;8.63;3.97;;;;;;;20.07;100.00;97922.31;5048978;28;20037;-94
2022/07/01 07:38:29;;;;;;;11.43;4.40;;;;;;;20.58;100.00;97931.53;5037901;28;20032;-93
2022/07/01 07:40:55;;;;;;;8.57;4.40;;;;;;;20.88;100.00;97925.28;5029235;28;20083;-93
2022/07/01 07:43:21;;;;;;;8.45;4.22;;;;;;;21.13;100.00;97932.47;5036580;28;20120;-94
2022/07/01 07:45:46;;;;;;;8.73;4.03;;;;;;;21.37;100.00;97937.13;5034481;28;20150;-94
2022/07/01 07:48:11;;;;;;;9.82;3.97;;;;;;;20.78;100.00;97936.47;5036107;28;20025;-93
2022/07/01 07:50:40;;;;;;;8.75;3.88;;;;;;;21.12;100.00;97936.91;5032599;28;20036;-93
2022/07/01 07:53:06;;;;;;;8.85;4.03;;;;;;;21.92;100.00;97935.19;5034323;28;20111;-92
2022/07/01 07:55:31;;;;;;;7.70;3.47;;;;;;;21.51;100.00;97925.59;5029036;28;20446;-92
2022/07/01 07:57:57;;;;;;;8.32;4.10;;;;;;;22.16;100.00;97933.50;5036449;28;20477;-92
2022/07/01 08:00:22;;;;;;;8.95;3.58;;;;;;;21.20;100.00;97943.53;5036638;28;20103;-91
2022/07/01 08:02:48;;;;;;;10.30;3.58;;;;;;;21.22;100.00;97928.38;5033008;28;21531;-93
2022/07/01 08:05:14;;;;;;;10.77;3.30;;;;;;;20.60;100.00;97934.97;5046956;28;20021;-92
2022/07/01 08:07:41;;;;;;;9.05;3.30;;;;;;;19.68;100.00;97944.91;5034825;28;20027;-94
2022/07/01 08:10:09;;;;;;;7.05;3.28;;;;;;;20.37;100.00;97936.38;5039376;28;20025;-93
2022/07/01 08:12:35;;;;;;;8.10;3.20;;;;;;;20.78;100.00;97936.47;5034805;28;20045;-94
2022/07/01 08:15:01;;;;;;;8.90;2.95;;;;;;;20.66;100.00;97942.50;5034401;28;20041;-94
2022/07/01 08:17:27;;;;;;;7.85;3.15;;;;;;;20.76;100.00;97948.94;5033905;28;20055;-95
2022/07/01 08:19:52;;;;;;;11.90;3.78;;;;;;;20.77;100.00;97940.03;5038624;28;20101;-92
2022/07/01 08:22:19;;;;;;;9.13;3.28;;;;;;;20.40;100.00;97941.50;5053979;28;20029;-94
2022/07/01 08:24:44;;;;;;;10.27;3.90;;;;;;;21.05;100.00;97951.53;5029924;28;20020;-93
2022/07/01 08:27:10;;;;;;;8.90;3.80;;;;;;;20.60;100.00;97942.91;5034150;28;20504;-92
2022/07/01 08:29:36;;;;;;;13.10;3.63;;;;;;;21.44;100.00;97947.19;5052151;28;20140;-92
2022/07/01 08:32:01;;;;;;;9.52;3.17;;;;;;;21.65;100.00;97952.91;5025364;28;20041;-90
2022/07/01 08:34:27;;;;;;;8.80;3.05;;;;;;;22.04;100.00;97957.41;5025684;28;20786;-89
2022/07/01 08:36:52;;;;;;;11.30;3.17;;;;;;;21.78;100.00;97954.72;5029374;28;20481;-90
2022/07/01 08:39:18;;;;;;;8.35;2.55;;;;;;;21.82;100.00;97957.09;5032948;28;20505;-91
2022/07/01 08:41:43;;;;;;;7.35;2.40;;;;;;;21.17;100.00;97955.19;5037499;28;20488;-92
2022/07/01 08:44:10;;;;;;;8.55;2.75;;;;;;;21.21;100.00;97954.03;5035501;28;20037;-93
2022/07/01 08:46:54;;;;;;;8.15;2.80;;;;;;;21.39;100.00;97961.72;5032706;28;20033;-95
2022/07/01 08:49:21;;;;;;;8.45;2.58;;;;;;;21.12;100.00;97963.44;5030361;28;20329;-93
2022/07/01 08:51:47;;;;;;;9.15;2.58;;;;;;;21.31;100.00;97959.59;5034392;28;20025;-93
2022/07/01 08:54:38;;;;;;;9.63;2.70;;;;;;;20.96;100.00;97955.63;5033497;28;20057;-96
2022/07/01 08:57:07;;;;;;;8.45;2.60;;;;;;;21.80;100.00;97961.63;5026917;28;20080;-95
2022/07/01 08:59:33;;;;;;;10.38;2.45;;;;;;;21.62;100.00;97961.06;5034703;28;20040;-94
2022/07/01 09:02:08;;;;;;;10.15;2.60;;;;;;;21.32;100.00;97958.63;5035090;28;20033;-95
2022/07/01 09:04:34;;;;;;;8.20;2.45;;;;;;;21.26;100.00;97961.69;5030447;28;20116;-95
2022/07/01 09:07:10;;;;;;;9.95;2.75;;;;;;;20.46;100.00;97957.84;5036639;28;20052;-96
2022/07/01 09:09:38;;;;;;;10.82;2.63;;;;;;;21.09;100.00;97955.69;5035934;28;20041;-95
2022/07/01 09:12:04;;;;;;;9.02;2.60;;;;;;;21.05;100.00;97963.94;5037310;28;20033;-94
2022/07/01 09:14:32;;;;;;;10.70;3.08;;;;;;;21.40;100.00;97958.13;5031101;28;20022;-95
2022/07/01 09:17:01;;;;;;;8.35;2.90;;;;;;;21.19;100.00;97957.75;5038372;28;20017;-96
2022/07/01 09:19:29;;;;;;;9.32;3.00;;;;;;;21.28;100.00;97965.06;5037081;28;20078;-96
2022/07/01 09:21:57;;;;;;;7.25;3.20;;;;;;;21.23;100.00;97953.94;5037302;28;20025;-92
2022/07/01 09:24:41;;;;;;;10.38;2.97;;;;;;;22.14;100.00;97963.78;5033154;28;20025;-93
2022/07/01 09:27:13;;;;;;;8.63;2.60;;;;;;;21.55;100.00;97959.78;5034012;28;20631;-94
2022/07/01 09:29:42;;;;;;;8.97;2.60;;;;;;;21.45;100.00;97956.88;5045589;28;20035;-90
2022/07/01 09:32:10;;;;;;;9.02;2.95;;;;;;;21.10;100.00;97967.16;5048911;28;20061;-94
2022/07/01 09:34:41;;;;;;;8.70;2.90;;;;;;;21.22;100.00;97954.88;5048993;28;20040;-95
2022/07/01 09:37:07;;;;;;;7.18;2.55;;;;;;;21.64;100.00;97966.28;5046846;28;20033;-96
2022/07/01 09:39:57;;;;;;;7.22;2.67;;;;;;;21.65;100.00;97967.97;5034074;28;20017;-96
2022/07/01 09:42:43;;;;;;;10.45;2.83;;;;;;;21.36;100.00;97967.22;5045336;28;20113;-96
2022/07/01 09:45:12;;;;;;;7.75;3.22;;;;;;;21.47;100.00;97965.59;5055341;28;20021;-95
2022/07/01 09:47:48;;;;;;;8.55;3.60;;;;;;;21.41;100.00;97976.59;5050431;28;20074;-96
2022/07/01 09:50:27;;;;;;;11.90;3.50;;;;;;;21.57;100.00;97965.84;5055778;28;20040;-96
2022/07/01 09:52:55;;;;;;;9.90;3.50;;;;;;;21.71;100.00;97980.84;5041384;28;20029;-96
2022/07/01 09:55:24;;;;;;;8.43;2.95;;;;;;;21.79;100.00;97989.13;5045600;28;20061;-95
2022/07/01 09:57:50;;;;;;;8.88;3.47;;;;;;;21.40;100.00;97982.00;5039916;28;20029;-96
2022/07/01 10:00:19;;;;;;;9.60;3.85;;;;;;;21.64;100.00;97983.06;5035299;28;20040;-95
2022/07/01 10:02:47;;;;;;;10.70;4.13;;;;;;;21.54;100.00;97987.25;5034971;28;20123;-95
2022/07/01 10:05:23;;;;;;;11.48;4.32;;;;;;;21.91;100.00;97997.22;5047484;28;20025;-95
2022/07/01 10:08:15;;;;;;;10.57;4.10;;;;;;;21.91;100.00;98007.84;5026500;28;20034;-91
2022/07/01 10:10:58;;;;;;;9.70;4.32;;;;;;;21.88;100.00;98002.72;5040313;28;20033;-94
2022/07/01 10:13:26;;;;;;;12.38;5.43;;;;;;;21.81;100.00;98026.19;5040238;28;20025;-94
2022/07/01 10:15:54;;;;;;;13.52;6.53;;;;;;;21.92;100.00;98025.47;5046074;28;20034;-93
2022/07/01 10:18:22;;;;;;;12.65;6.43;;;;;;;21.83;100.00;98014.50;5039894;28;20112;-93
2022/07/01 10:20:49;;;;;;;13.07;7.38;;;;;;;22.51;100.00;98017.03;5037097;28;20087;-94
2022/07/01 10:23:21;;;;;;;13.82;7.88;;;;;;;22.81;100.00;98013.16;5049808;28;20059;-95
2022/07/01 10:25:49;;;;;;;13.00;7.35;;;;;;;22.68;100.00;98023.81;5034074;28;20112;-94
2022/07/01 10:28:19;;;;;;;14.23;5.85;;;;;;;22.53;100.00;98007.16;5032820;28;20029;-95
2022/07/01 10:31:16;;;;;;;10.27;5.55;;;;;;;22.51;100.00;98017.03;5039017;28;20085;-94
2022/07/01 10:33:48;;;;;;;12.80;5.90;;;;;;;22.93;100.00;98014.94;5038544;28;20026;-94
2022/07/01 10:36:27;;;;;;;9.88;4.05;;;;;;;22.32;100.00;98013.00;5038253;28;20041;-93
2022/07/01 10:39:08;;;;;;;10.10;3.45;;;;;;;22.47;100.00;98029.69;5033626;28;20029;-94
2022/07/01 10:41:42;;;;;;;11.95;2.50;;;;;;;22.93;100.00;98030.91;5055099;28;20497;-93
2022/07/01 10:44:10;;;;;;;10.13;2.83;;;;;;;22.74;100.00;98027.84;5043263;28;20642;-94
2022/07/01 10:46:56;;;;;;;6.60;2.22;;;;;;;22.81;100.00;98029.13;5036294;28;20042;-94
2022/07/01 10:49:37;;;;;;;7.35;1.60;;;;;;;22.74;100.00;98044.66;5035054;28;20030;-94
2022/07/01 10:52:07;;;;;;;5.70;1.35;;;;;;;23.49;100.00;98040.22;5041351;28;20036;-94
2022/07/01 10:54:36;;;;;;;7.60;1.60;;;;;;;23.59;100.00;98043.94;5039906;28;20024;-91
2022/07/01 10:57:19;;;;;;;6.22;1.80;;;;;;;22.45;100.00;98033.41;5048932;28;20072;-92
2022/07/01 10:59:45;;;;;;;5.40;1.40;;;;;;;22.33;100.00;98045.69;5051610;28;20034;-93
2022/07/01 11:02:18;;;;;;;6.43;1.60;;;;;;;22.94;100.00;98026.44;5039085;28;20059;-93
2022/07/01 11:04:44;;;;;;;9.82;1.60;;;;;;;22.67;100.00;98036.28;5041502;28;20018;-93
2022/07/01 11:07:11;;;;;;;6.88;1.75;;;;;;;23.29;100.00;98036.38;5038544;28;20033;-93
2022/07/01 11:09:40;;;;;;;8.45;1.58;;;;;;;23.46;100.00;98033.31;5054061;28;20041;-91
2022/07/01 11:12:06;;;;;;;5.35;1.35;;;;;;;23.19;100.00;98044.19;5048643;28;20041;-90
2022/07/01 11:14:37;;;;;;;7.38;1.45;;;;;;;23.72;100.00;98037.69;5044438;28;20060;-94
2022/07/01 11:17:04;;;;;;;5.88;1.50;;;;;;;22.48;100.00;98036.69;5057361;28;20021;-93
2022/07/01 11:19:29;;;;;;;5.68;1.50;;;;;;;23.27;100.00;98035.63;5050106;28;20021;-93
2022/07/01 11:21:55;;;;;;;5.40;1.70;;;;;;;23.00;100.00;98028.66;5051730;28;20033;-95
2022/07/01 11:24:22;;;;;;;3.78;1.20;;;;;;;23.41;100.00;98040.81;5045008;28;20037;-91
2022/07/01 11:26:48;;;;;;;8.63;1.58;;;;;;;23.32;100.00;98029.00;5067308;28;20044;-91
2022/07/01 11:29:23;;;;;;;5.90;1.33;;;;;;;22.96;100.00;98030.69;5050427;28;20018;-93
2022/07/01 11:31:49;;;;;;;4.45;1.25;;;;;;;23.25;100.00;98041.06;5048076;28;20029;-92
2022/07/01 11:34:17;;;;;;;5.13;1.30;;;;;;;23.22;100.00;98032.47;5053679;28;20022;-92
2022/07/01 11:39:32;;;;;;;5.90;1.27;;;;;;;22.87;100.00;98022.50;5051734;28;20083;-93